sensor_id;sensor_type;location;lat;lon;timestamp;temperature;humidity
2639;DHT22;1329;51.384;7.122;2023-02-20T00:01:32;7.80;99.90
2639;DHT22;1329;51.384;7.122;2023-02-20T00:04:06;7.80;99.90
2639;DHT22;1329;51.384;7.122;2023-02-20T00:06:35;7.80;99.90
2639;DHT22;1329;51.384;7.122;2023-02-20T00:09:03;7.80;99.90
2639;DHT22;1329;51.384;7.122;2023-02-20T00:14:18;7.90;99.90
2639;DHT22;1329;51.384;7.122;2023-02-20T00:16:48;7.90;99.90
2639;DHT22;1329;51.384;7.122;2023-02-20T00:19:20;7.90;99.90
2639;DHT22;1329;51.384;7.122;2023-02-20T00:21:55;7.90;99.90
2639;DHT22;1329;51.384;7.122;2023-02-20T00:24:32;7.90;99.90
2639;DHT22;1329;51.384;7.122;2023-02-20T00:27:14;7.90;99.90
2639;DHT22;1329;51.384;7.122;2023-02-20T00:29:53;8.00;99.90
2639;DHT22;1329;51.384;7.122;2023-02-20T00:32:21;8.00;99.90
2639;DHT22;1329;51.384;7.122;2023-02-20T00:34:48;8.00;99.90
2639;DHT22;1329;51.384;7.122;2023-02-20T00:37:17;8.00;99.90
2639;DHT22;1329;51.384;7.122;2023-02-20T00:39:46;8.00;99.90
2639;DHT22;1329;51.384;7.122;2023-02-20T00:42:22;8.10;99.90
2639;DHT22;1329;51.384;7.122;2023-02-20T00:44:51;8.10;99.90
2639;DHT22;1329;51.384;7.122;2023-02-20T00:47:21;8.10;99.90
2639;DHT22;1329;51.384;7.122;2023-02-20T00:49:56;8.10;99.90
2639;DHT22;1329;51.384;7.122;2023-02-20T00:52:28;8.10;99.90
2639;DHT22;1329;51.384;7.122;2023-02-20T00:55:01;8.10;99.90
2639;DHT22;1329;51.384;7.122;2023-02-20T00:57:31;8.10;99.90
2639;DHT22;1329;51.384;7.122;2023-02-20T00:59:59;8.10;99.90
2639;DHT22;1329;51.384;7.122;2023-02-20T01:02:41;8.20;99.90
2639;DHT22;1329;51.384;7.122;2023-02-20T01:05:13;8.10;99.90
2639;DHT22;1329;51.384;7.122;2023-02-20T01:07:44;8.20;99.90
2639;DHT22;1329;51.384;7.122;2023-02-20T01:10:15;8.20;99.90
2639;DHT22;1329;51.384;7.122;2023-02-20T01:12:55;8.20;99.90
2639;DHT22;1329;51.384;7.122;2023-02-20T01:15:24;8.20;99.90
2639;DHT22;1329;51.384;7.122;2023-02-20T01:17:57;8.20;99.90
2639;DHT22;1329;51.384;7.122;2023-02-20T01:20:24;8.20;99.90
2639;DHT22;1329;51.384;7.122;2023-02-20T01:23:06;8.20;99.90
2639;DHT22;1329;51.384;7.122;2023-02-20T01:25:42;8.20;99.90
2639;DHT22;1329;51.384;7.122;2023-02-20T01:28:14;8.20;99.90
2639;DHT22;1329;51.384;7.122;2023-02-20T01:30:53;8.20;99.90
2639;DHT22;1329;51.384;7.122;2023-02-20T01:33:22;8.20;99.90
2639;DHT22;1329;51.384;7.122;2023-02-20T01:35:51;8.20;99.90
2639;DHT22;1329;51.384;7.122;2023-02-20T01:38:22;8.20;99.90
2639;DHT22;1329;51.384;7.122;2023-02-20T01:41:00;8.10;99.90
2639;DHT22;1329;51.384;7.122;2023-02-20T01:43:31;8.20;99.90
2639;DHT22;1329;51.384;7.122;2023-02-20T01:49:14;8.20;99.90
2639;DHT22;1329;51.384;7.122;2023-02-20T01:51:56;8.20;99.90
2639;DHT22;1329;51.384;7.122;2023-02-20T01:54:31;8.20;99.90
2639;DHT22;1329;51.384;7.122;2023-02-20T01:57:05;8.20;99.90
2639;DHT22;1329;51.384;7.122;2023-02-20T02:02:43;8.10;99.90
2639;DHT22;1329;51.384;7.122;2023-02-20T02:05:13;8.10;99.90
2639;DHT22;1329;51.384;7.122;2023-02-20T02:07:43;8.10;99.90
2639;DHT22;1329;51.384;7.122;2023-02-20T02:10:14;8.10;99.90
2639;DHT22;1329;51.384;7.122;2023-02-20T02:12:46;8.10;99.90
2639;DHT22;1329;51.384;7.122;2023-02-20T02:15:19;8.10;99.90
2639;DHT22;1329;51.384;7.122;2023-02-20T02:18:01;8.10;99.90
2639;DHT22;1329;51.384;7.122;2023-02-20T02:34:25;8.10;99.90
2639;DHT22;1329;51.384;7.122;2023-02-20T02:37:18;8.10;99.90
2639;DHT22;1329;51.384;7.122;2023-02-20T02:39:49;8.00;99.90
2639;DHT22;1329;51.384;7.122;2023-02-20T02:42:28;8.00;99.90
2639;DHT22;1329;51.384;7.122;2023-02-20T02:45:11;8.00;99.90
2639;DHT22;1329;51.384;7.122;2023-02-20T02:47:47;8.00;99.90
2639;DHT22;1329;51.384;7.122;2023-02-20T02:50:20;7.90;99.90
2639;DHT22;1329;51.384;7.122;2023-02-20T02:52:51;7.90;99.90
2639;DHT22;1329;51.384;7.122;2023-02-20T02:55:20;7.90;99.90
2639;DHT22;1329;51.384;7.122;2023-02-20T02:57:49;7.90;99.90
2639;DHT22;1329;51.384;7.122;2023-02-20T03:00:24;7.90;99.90
2639;DHT22;1329;51.384;7.122;2023-02-20T03:02:56;7.80;99.90
2639;DHT22;1329;51.384;7.122;2023-02-20T03:05:28;7.80;99.90
2639;DHT22;1329;51.384;7.122;2023-02-20T03:08:07;7.80;99.90
2639;DHT22;1329;51.384;7.122;2023-02-20T03:10:39;7.80;99.90
2639;DHT22;1329;51.384;7.122;2023-02-20T03:13:08;7.80;99.90
2639;DHT22;1329;51.384;7.122;2023-02-20T03:15:39;7.80;99.90
2639;DHT22;1329;51.384;7.122;2023-02-20T03:18:14;7.80;99.90
2639;DHT22;1329;51.384;7.122;2023-02-20T03:20:51;7.80;99.90
2639;DHT22;1329;51.384;7.122;2023-02-20T03:23:25;7.80;99.90
2639;DHT22;1329;51.384;7.122;2023-02-20T03:26:00;7.80;99.90
2639;DHT22;1329;51.384;7.122;2023-02-20T03:28:35;7.80;99.90
2639;DHT22;1329;51.384;7.122;2023-02-20T03:31:08;7.80;99.90
2639;DHT22;1329;51.384;7.122;2023-02-20T03:33:40;7.80;99.90
2639;DHT22;1329;51.384;7.122;2023-02-20T03:36:31;7.80;99.90
2639;DHT22;1329;51.384;7.122;2023-02-20T03:39:24;7.80;99.90
2639;DHT22;1329;51.384;7.122;2023-02-20T03:42:13;7.80;99.90
2639;DHT22;1329;51.384;7.122;2023-02-20T03:45:00;7.80;99.90
2639;DHT22;1329;51.384;7.122;2023-02-20T03:47:34;7.80;99.90
2639;DHT22;1329;51.384;7.122;2023-02-20T03:50:04;7.80;99.90
2639;DHT22;1329;51.384;7.122;2023-02-20T03:52:33;7.80;99.90
2639;DHT22;1329;51.384;7.122;2023-02-20T03:55:02;7.80;99.90
2639;DHT22;1329;51.384;7.122;2023-02-20T03:57:33;7.80;99.90
2639;DHT22;1329;51.384;7.122;2023-02-20T04:00:05;7.80;99.90
2639;DHT22;1329;51.384;7.122;2023-02-20T04:02:38;7.80;99.90
2639;DHT22;1329;51.384;7.122;2023-02-20T04:05:11;7.80;99.90
2639;DHT22;1329;51.384;7.122;2023-02-20T04:07:42;7.70;99.90
2639;DHT22;1329;51.384;7.122;2023-02-20T04:10:20;7.70;99.90
2639;DHT22;1329;51.384;7.122;2023-02-20T04:12:52;7.70;99.90
2639;DHT22;1329;51.384;7.122;2023-02-20T04:15:23;7.70;99.90
2639;DHT22;1329;51.384;7.122;2023-02-20T04:17:55;7.70;99.90
2639;DHT22;1329;51.384;7.122;2023-02-20T04:20:26;7.60;99.90
2639;DHT22;1329;51.384;7.122;2023-02-20T04:22:59;7.60;99.90
2639;DHT22;1329;51.384;7.122;2023-02-20T04:25:38;7.60;99.90
2639;DHT22;1329;51.384;7.122;2023-02-20T04:28:10;7.60;99.90
2639;DHT22;1329;51.384;7.122;2023-02-20T04:30:38;7.60;99.90
2639;DHT22;1329;51.384;7.122;2023-02-20T04:33:08;7.60;99.90
2639;DHT22;1329;51.384;7.122;2023-02-20T04:35:36;7.60;99.90
2639;DHT22;1329;51.384;7.122;2023-02-20T04:38:03;7.60;99.90
2639;DHT22;1329;51.384;7.122;2023-02-20T04:40:32;7.60;99.90
2639;DHT22;1329;51.384;7.122;2023-02-20T04:43:00;7.60;99.90
2639;DHT22;1329;51.384;7.122;2023-02-20T04:45:27;7.60;99.90
2639;DHT22;1329;51.384;7.122;2023-02-20T04:47:55;7.60;99.90
2639;DHT22;1329;51.384;7.122;2023-02-20T04:50:24;7.60;99.90
2639;DHT22;1329;51.384;7.122;2023-02-20T04:52:53;7.60;99.90
2639;DHT22;1329;51.384;7.122;2023-02-20T04:55:21;7.60;99.90
2639;DHT22;1329;51.384;7.122;2023-02-20T04:57:50;7.60;99.90
2639;DHT22;1329;51.384;7.122;2023-02-20T05:00:21;7.60;99.90
2639;DHT22;1329;51.384;7.122;2023-02-20T05:02:50;7.60;99.90
2639;DHT22;1329;51.384;7.122;2023-02-20T05:05:20;7.60;99.90
2639;DHT22;1329;51.384;7.122;2023-02-20T05:07:56;7.60;99.90
2639;DHT22;1329;51.384;7.122;2023-02-20T05:10:27;7.60;99.90
2639;DHT22;1329;51.384;7.122;2023-02-20T05:12:59;7.60;99.90
2639;DHT22;1329;51.384;7.122;2023-02-20T05:15:30;7.60;99.90
2639;DHT22;1329;51.384;7.122;2023-02-20T05:17:58;7.60;99.90
2639;DHT22;1329;51.384;7.122;2023-02-20T05:20:26;7.60;99.90
2639;DHT22;1329;51.384;7.122;2023-02-20T05:23:13;7.60;99.90
2639;DHT22;1329;51.384;7.122;2023-02-20T05:25:41;7.60;99.90
2639;DHT22;1329;51.384;7.122;2023-02-20T05:28:10;7.60;99.90
2639;DHT22;1329;51.384;7.122;2023-02-20T05:30:37;7.70;99.90
2639;DHT22;1329;51.384;7.122;2023-02-20T05:33:06;7.60;99.90
2639;DHT22;1329;51.384;7.122;2023-02-20T05:35:34;7.60;99.90
2639;DHT22;1329;51.384;7.122;2023-02-20T05:38:04;7.60;99.90
2639;DHT22;1329;51.384;7.122;2023-02-20T05:40:31;7.60;99.90
2639;DHT22;1329;51.384;7.122;2023-02-20T05:43:01;7.60;99.90
2639;DHT22;1329;51.384;7.122;2023-02-20T05:45:31;7.60;99.90
2639;DHT22;1329;51.384;7.122;2023-02-20T05:47:58;7.60;99.90
2639;DHT22;1329;51.384;7.122;2023-02-20T05:50:26;7.60;99.90
2639;DHT22;1329;51.384;7.122;2023-02-20T05:52:53;7.60;99.90
2639;DHT22;1329;51.384;7.122;2023-02-20T05:55:20;7.60;99.90
2639;DHT22;1329;51.384;7.122;2023-02-20T05:57:48;7.70;99.90
2639;DHT22;1329;51.384;7.122;2023-02-20T06:00:16;7.60;99.90
2639;DHT22;1329;51.384;7.122;2023-02-20T06:02:45;7.60;99.90
2639;DHT22;1329;51.384;7.122;2023-02-20T06:05:13;7.70;99.90
2639;DHT22;1329;51.384;7.122;2023-02-20T06:07:43;7.70;99.90
2639;DHT22;1329;51.384;7.122;2023-02-20T06:10:11;7.80;99.90
2639;DHT22;1329;51.384;7.122;2023-02-20T06:12:38;7.70;99.90
2639;DHT22;1329;51.384;7.122;2023-02-20T06:15:06;7.70;99.90
2639;DHT22;1329;51.384;7.122;2023-02-20T06:17:34;7.70;99.90
2639;DHT22;1329;51.384;7.122;2023-02-20T06:20:05;7.70;99.90
2639;DHT22;1329;51.384;7.122;2023-02-20T06:22:33;7.80;99.90
2639;DHT22;1329;51.384;7.122;2023-02-20T06:25:00;7.80;99.90
2639;DHT22;1329;51.384;7.122;2023-02-20T06:27:27;7.80;99.90
2639;DHT22;1329;51.384;7.122;2023-02-20T06:29:54;7.80;99.90
2639;DHT22;1329;51.384;7.122;2023-02-20T06:32:21;7.80;99.90
2639;DHT22;1329;51.384;7.122;2023-02-20T06:34:49;7.90;99.90
2639;DHT22;1329;51.384;7.122;2023-02-20T06:37:18;7.90;99.90
2639;DHT22;1329;51.384;7.122;2023-02-20T06:39:51;7.90;99.90
2639;DHT22;1329;51.384;7.122;2023-02-20T06:42:21;8.00;99.90
2639;DHT22;1329;51.384;7.122;2023-02-20T06:44:49;8.00;99.90
2639;DHT22;1329;51.384;7.122;2023-02-20T06:47:16;8.00;99.90
2639;DHT22;1329;51.384;7.122;2023-02-20T06:49:43;8.00;99.90
2639;DHT22;1329;51.384;7.122;2023-02-20T06:52:10;8.10;99.90
2639;DHT22;1329;51.384;7.122;2023-02-20T06:54:39;8.10;99.90
2639;DHT22;1329;51.384;7.122;2023-02-20T06:57:10;8.10;99.90
2639;DHT22;1329;51.384;7.122;2023-02-20T06:59:38;8.10;99.90
2639;DHT22;1329;51.384;7.122;2023-02-20T07:02:10;8.10;99.90
2639;DHT22;1329;51.384;7.122;2023-02-20T07:04:38;8.10;99.90
2639;DHT22;1329;51.384;7.122;2023-02-20T07:07:06;8.10;99.90
2639;DHT22;1329;51.384;7.122;2023-02-20T07:09:36;8.10;99.90
2639;DHT22;1329;51.384;7.122;2023-02-20T07:12:08;8.10;99.90
2639;DHT22;1329;51.384;7.122;2023-02-20T07:14:36;8.10;99.90
2639;DHT22;1329;51.384;7.122;2023-02-20T07:17:06;8.10;99.90
2639;DHT22;1329;51.384;7.122;2023-02-20T07:19:37;8.10;99.90
2639;DHT22;1329;51.384;7.122;2023-02-20T07:22:08;8.10;99.90
2639;DHT22;1329;51.384;7.122;2023-02-20T07:24:39;8.10;99.90
2639;DHT22;1329;51.384;7.122;2023-02-20T07:27:11;8.10;99.90
2639;DHT22;1329;51.384;7.122;2023-02-20T07:29:40;8.10;99.90
2639;DHT22;1329;51.384;7.122;2023-02-20T07:32:07;8.00;99.90
2639;DHT22;1329;51.384;7.122;2023-02-20T07:34:37;8.10;99.90
2639;DHT22;1329;51.384;7.122;2023-02-20T07:37:05;8.10;99.90
2639;DHT22;1329;51.384;7.122;2023-02-20T07:39:33;8.10;99.90
2639;DHT22;1329;51.384;7.122;2023-02-20T07:42:01;8.10;99.90
2639;DHT22;1329;51.384;7.122;2023-02-20T07:44:39;8.10;99.90
2639;DHT22;1329;51.384;7.122;2023-02-20T07:47:06;8.10;99.90
2639;DHT22;1329;51.384;7.122;2023-02-20T07:49:34;8.10;99.90
2639;DHT22;1329;51.384;7.122;2023-02-20T07:52:05;8.10;99.90
2639;DHT22;1329;51.384;7.122;2023-02-20T07:54:33;8.10;99.90
2639;DHT22;1329;51.384;7.122;2023-02-20T07:57:08;8.20;99.90
2639;DHT22;1329;51.384;7.122;2023-02-20T07:59:43;8.20;99.90
2639;DHT22;1329;51.384;7.122;2023-02-20T08:02:13;8.20;99.90
2639;DHT22;1329;51.384;7.122;2023-02-20T08:04:40;8.20;99.90
2639;DHT22;1329;51.384;7.122;2023-02-20T08:07:08;8.30;99.90
2639;DHT22;1329;51.384;7.122;2023-02-20T08:09:35;8.30;99.90
2639;DHT22;1329;51.384;7.122;2023-02-20T08:12:06;8.30;99.90
2639;DHT22;1329;51.384;7.122;2023-02-20T08:14:34;8.30;99.90
2639;DHT22;1329;51.384;7.122;2023-02-20T08:17:04;8.30;99.90
2639;DHT22;1329;51.384;7.122;2023-02-20T08:19:39;8.40;99.90
2639;DHT22;1329;51.384;7.122;2023-02-20T08:22:12;8.30;99.90
2639;DHT22;1329;51.384;7.122;2023-02-20T08:24:40;8.40;99.90
2639;DHT22;1329;51.384;7.122;2023-02-20T08:27:09;8.50;99.90
2639;DHT22;1329;51.384;7.122;2023-02-20T08:29:39;8.50;99.90
2639;DHT22;1329;51.384;7.122;2023-02-20T08:32:07;8.50;99.90
2639;DHT22;1329;51.384;7.122;2023-02-20T08:34:37;8.50;99.90
2639;DHT22;1329;51.384;7.122;2023-02-20T08:37:08;8.50;99.90
2639;DHT22;1329;51.384;7.122;2023-02-20T08:39:36;8.60;99.90
2639;DHT22;1329;51.384;7.122;2023-02-20T08:42:04;8.60;99.90
2639;DHT22;1329;51.384;7.122;2023-02-20T08:44:32;8.70;99.90
2639;DHT22;1329;51.384;7.122;2023-02-20T08:46:59;8.70;99.90
2639;DHT22;1329;51.384;7.122;2023-02-20T08:49:28;8.70;99.90
2639;DHT22;1329;51.384;7.122;2023-02-20T08:51:58;8.70;99.90
2639;DHT22;1329;51.384;7.122;2023-02-20T08:54:25;8.80;99.90
2639;DHT22;1329;51.384;7.122;2023-02-20T08:56:57;8.70;99.90
2639;DHT22;1329;51.384;7.122;2023-02-20T08:59:30;8.70;99.90
2639;DHT22;1329;51.384;7.122;2023-02-20T09:01:59;8.70;99.90
2639;DHT22;1329;51.384;7.122;2023-02-20T09:04:28;8.70;99.90
2639;DHT22;1329;51.384;7.122;2023-02-20T09:06:56;8.70;99.90
2639;DHT22;1329;51.384;7.122;2023-02-20T09:09:26;8.80;99.90
2639;DHT22;1329;51.384;7.122;2023-02-20T09:11:55;8.80;99.90
2639;DHT22;1329;51.384;7.122;2023-02-20T09:14:28;8.80;99.90
2639;DHT22;1329;51.384;7.122;2023-02-20T09:16:56;8.80;99.90
2639;DHT22;1329;51.384;7.122;2023-02-20T09:19:34;8.80;99.90
2639;DHT22;1329;51.384;7.122;2023-02-20T09:22:05;8.80;99.90
2639;DHT22;1329;51.384;7.122;2023-02-20T09:24:32;8.80;99.90
2639;DHT22;1329;51.384;7.122;2023-02-20T09:27:01;8.80;99.90
2639;DHT22;1329;51.384;7.122;2023-02-20T09:29:29;8.80;99.90
2639;DHT22;1329;51.384;7.122;2023-02-20T09:31:56;8.80;99.90
2639;DHT22;1329;51.384;7.122;2023-02-20T09:34:26;8.80;99.90
2639;DHT22;1329;51.384;7.122;2023-02-20T09:36:58;8.80;99.90
2639;DHT22;1329;51.384;7.122;2023-02-20T09:39:25;8.80;99.90
2639;DHT22;1329;51.384;7.122;2023-02-20T09:42:11;8.90;99.90
2639;DHT22;1329;51.384;7.122;2023-02-20T09:45:02;8.80;99.90
2639;DHT22;1329;51.384;7.122;2023-02-20T09:47:47;8.90;99.90
2639;DHT22;1329;51.384;7.122;2023-02-20T09:50:43;8.90;99.90
2639;DHT22;1329;51.384;7.122;2023-02-20T09:53:20;8.90;99.90
2639;DHT22;1329;51.384;7.122;2023-02-20T09:55:54;8.90;99.90
2639;DHT22;1329;51.384;7.122;2023-02-20T09:58:26;8.90;99.90
2639;DHT22;1329;51.384;7.122;2023-02-20T10:00:59;9.00;99.90
2639;DHT22;1329;51.384;7.122;2023-02-20T10:03:33;9.00;99.90
2639;DHT22;1329;51.384;7.122;2023-02-20T10:06:12;9.00;99.90
2639;DHT22;1329;51.384;7.122;2023-02-20T10:08:43;9.10;99.90
2639;DHT22;1329;51.384;7.122;2023-02-20T10:11:22;9.10;99.90
2639;DHT22;1329;51.384;7.122;2023-02-20T10:14:25;9.00;99.90
2639;DHT22;1329;51.384;7.122;2023-02-20T10:17:22;9.10;99.90
2639;DHT22;1329;51.384;7.122;2023-02-20T10:20:01;9.10;99.90
2639;DHT22;1329;51.384;7.122;2023-02-20T10:22:41;9.10;99.90
2639;DHT22;1329;51.384;7.122;2023-02-20T10:25:29;9.00;99.90
2639;DHT22;1329;51.384;7.122;2023-02-20T10:28:02;9.00;99.90
2639;DHT22;1329;51.384;7.122;2023-02-20T10:30:35;9.10;99.90
2639;DHT22;1329;51.384;7.122;2023-02-20T10:33:16;9.10;99.90
2639;DHT22;1329;51.384;7.122;2023-02-20T10:35:52;9.10;99.90
2639;DHT22;1329;51.384;7.122;2023-02-20T10:38:38;9.10;99.90
2639;DHT22;1329;51.384;7.122;2023-02-20T10:41:29;9.20;99.90
2639;DHT22;1329;51.384;7.122;2023-02-20T10:44:06;9.30;99.90
2639;DHT22;1329;51.384;7.122;2023-02-20T10:46:55;9.30;99.90
2639;DHT22;1329;51.384;7.122;2023-02-20T10:49:32;9.40;99.90
2639;DHT22;1329;51.384;7.122;2023-02-20T10:52:16;9.50;99.90
2639;DHT22;1329;51.384;7.122;2023-02-20T10:54:51;9.60;99.90
2639;DHT22;1329;51.384;7.122;2023-02-20T10:57:32;9.70;99.90
2639;DHT22;1329;51.384;7.122;2023-02-20T11:00:10;9.80;99.90
2639;DHT22;1329;51.384;7.122;2023-02-20T11:02:51;9.80;99.90
2639;DHT22;1329;51.384;7.122;2023-02-20T11:05:26;9.80;99.90
2639;DHT22;1329;51.384;7.122;2023-02-20T11:07:59;9.90;99.90
2639;DHT22;1329;51.384;7.122;2023-02-20T11:10:30;9.90;99.90
2639;DHT22;1329;51.384;7.122;2023-02-20T11:13:07;10.00;99.90
2639;DHT22;1329;51.384;7.122;2023-02-20T11:15:45;10.10;99.90
2639;DHT22;1329;51.384;7.122;2023-02-20T11:18:32;10.10;99.90
2639;DHT22;1329;51.384;7.122;2023-02-20T11:21:05;10.20;99.90
2639;DHT22;1329;51.384;7.122;2023-02-20T11:23:37;10.20;99.90
2639;DHT22;1329;51.384;7.122;2023-02-20T11:26:18;10.30;99.90
2639;DHT22;1329;51.384;7.122;2023-02-20T11:29:01;10.40;99.90
2639;DHT22;1329;51.384;7.122;2023-02-20T11:31:46;10.40;99.90
2639;DHT22;1329;51.384;7.122;2023-02-20T11:34:17;10.40;99.90
2639;DHT22;1329;51.384;7.122;2023-02-20T11:36:48;10.40;99.90
2639;DHT22;1329;51.384;7.122;2023-02-20T11:39:21;10.40;99.90
2639;DHT22;1329;51.384;7.122;2023-02-20T11:42:11;10.40;99.90
2639;DHT22;1329;51.384;7.122;2023-02-20T11:44:45;10.40;99.90
2639;DHT22;1329;51.384;7.122;2023-02-20T11:48:07;10.40;99.90
2639;DHT22;1329;51.384;7.122;2023-02-20T11:50:45;10.50;99.90
2639;DHT22;1329;51.384;7.122;2023-02-20T11:53:20;10.40;99.90
2639;DHT22;1329;51.384;7.122;2023-02-20T11:56:07;10.40;99.90
2639;DHT22;1329;51.384;7.122;2023-02-20T11:58:37;10.40;99.90
2639;DHT22;1329;51.384;7.122;2023-02-20T12:01:28;10.40;99.90
2639;DHT22;1329;51.384;7.122;2023-02-20T12:03:58;10.50;99.90
2639;DHT22;1329;51.384;7.122;2023-02-20T12:06:40;10.40;99.90
2639;DHT22;1329;51.384;7.122;2023-02-20T12:09:12;10.50;99.90
2639;DHT22;1329;51.384;7.122;2023-02-20T12:11:48;10.50;99.90
2639;DHT22;1329;51.384;7.122;2023-02-20T12:14:36;10.50;99.90
2639;DHT22;1329;51.384;7.122;2023-02-20T12:17:22;10.40;99.90
2639;DHT22;1329;51.384;7.122;2023-02-20T12:20:08;10.40;99.90
2639;DHT22;1329;51.384;7.122;2023-02-20T12:22:44;10.40;99.90
2639;DHT22;1329;51.384;7.122;2023-02-20T12:25:23;10.40;99.90
2639;DHT22;1329;51.384;7.122;2023-02-20T12:28:03;10.30;99.90
2639;DHT22;1329;51.384;7.122;2023-02-20T12:30:52;10.30;99.90
2639;DHT22;1329;51.384;7.122;2023-02-20T12:33:58;10.30;99.90
2639;DHT22;1329;51.384;7.122;2023-02-20T12:36:36;10.30;99.90
2639;DHT22;1329;51.384;7.122;2023-02-20T12:39:17;10.20;99.90
2639;DHT22;1329;51.384;7.122;2023-02-20T12:42:04;10.20;99.90
2639;DHT22;1329;51.384;7.122;2023-02-20T12:45:02;10.10;99.90
2639;DHT22;1329;51.384;7.122;2023-02-20T12:47:41;10.10;99.90
2639;DHT22;1329;51.384;7.122;2023-02-20T12:50:26;10.10;99.90
2639;DHT22;1329;51.384;7.122;2023-02-20T12:53:20;10.10;99.90
2639;DHT22;1329;51.384;7.122;2023-02-20T12:56:17;10.00;99.90
2639;DHT22;1329;51.384;7.122;2023-02-20T12:58:58;10.00;99.90
2639;DHT22;1329;51.384;7.122;2023-02-20T13:01:28;10.00;99.90
2639;DHT22;1329;51.384;7.122;2023-02-20T13:04:06;10.00;99.90
2639;DHT22;1329;51.384;7.122;2023-02-20T13:06:50;10.00;99.90
2639;DHT22;1329;51.384;7.122;2023-02-20T13:09:24;10.00;99.90
2639;DHT22;1329;51.384;7.122;2023-02-20T13:14:57;10.10;99.90
2639;DHT22;1329;51.384;7.122;2023-02-20T13:17:51;10.10;99.90
2639;DHT22;1329;51.384;7.122;2023-02-20T13:20:29;10.10;99.90
2639;DHT22;1329;51.384;7.122;2023-02-20T13:25:56;10.10;99.90
2639;DHT22;1329;51.384;7.122;2023-02-20T13:28:51;10.00;99.90
2639;DHT22;1329;51.384;7.122;2023-02-20T13:31:44;10.10;99.90
2639;DHT22;1329;51.384;7.122;2023-02-20T13:34:42;10.10;99.90
2639;DHT22;1329;51.384;7.122;2023-02-20T13:40:44;10.10;99.90
2639;DHT22;1329;51.384;7.122;2023-02-20T13:43:31;10.10;99.90
2639;DHT22;1329;51.384;7.122;2023-02-20T13:46:17;10.20;99.90
2639;DHT22;1329;51.384;7.122;2023-02-20T13:48:51;10.20;99.90
2639;DHT22;1329;51.384;7.122;2023-02-20T13:51:36;10.20;99.90
2639;DHT22;1329;51.384;7.122;2023-02-20T13:54:25;10.20;99.90
2639;DHT22;1329;51.384;7.122;2023-02-20T13:57:17;10.20;99.90
2639;DHT22;1329;51.384;7.122;2023-02-20T13:59:47;10.20;99.90
2639;DHT22;1329;51.384;7.122;2023-02-20T14:02:17;10.20;99.90
2639;DHT22;1329;51.384;7.122;2023-02-20T14:05:03;10.20;99.90
2639;DHT22;1329;51.384;7.122;2023-02-20T14:07:43;10.10;99.90
2639;DHT22;1329;51.384;7.122;2023-02-20T14:10:17;10.20;99.90
2639;DHT22;1329;51.384;7.122;2023-02-20T14:13:02;10.10;99.90
2639;DHT22;1329;51.384;7.122;2023-02-20T14:15:41;10.10;99.90
2639;DHT22;1329;51.384;7.122;2023-02-20T14:18:15;10.10;99.90
2639;DHT22;1329;51.384;7.122;2023-02-20T14:20:49;10.10;99.90
2639;DHT22;1329;51.384;7.122;2023-02-20T14:23:26;10.10;99.90
2639;DHT22;1329;51.384;7.122;2023-02-20T14:26:17;10.00;99.90
2639;DHT22;1329;51.384;7.122;2023-02-20T14:28:53;10.00;99.90
2639;DHT22;1329;51.384;7.122;2023-02-20T14:31:23;10.00;99.90
2639;DHT22;1329;51.384;7.122;2023-02-20T14:33:54;10.00;99.90
2639;DHT22;1329;51.384;7.122;2023-02-20T14:36:41;10.00;99.90
2639;DHT22;1329;51.384;7.122;2023-02-20T14:39:34;10.00;99.90
2639;DHT22;1329;51.384;7.122;2023-02-20T14:42:18;10.00;99.90
2639;DHT22;1329;51.384;7.122;2023-02-20T14:44:56;10.00;99.90
2639;DHT22;1329;51.384;7.122;2023-02-20T14:47:25;10.00;99.90
2639;DHT22;1329;51.384;7.122;2023-02-20T14:50:13;10.00;99.90
2639;DHT22;1329;51.384;7.122;2023-02-20T14:53:08;10.00;99.90
2639;DHT22;1329;51.384;7.122;2023-02-20T14:55:48;10.00;99.90
2639;DHT22;1329;51.384;7.122;2023-02-20T14:58:20;10.00;99.90
2639;DHT22;1329;51.384;7.122;2023-02-20T15:00:53;10.00;99.90
2639;DHT22;1329;51.384;7.122;2023-02-20T15:03:27;10.00;99.90
2639;DHT22;1329;51.384;7.122;2023-02-20T15:06:00;10.00;99.90
2639;DHT22;1329;51.384;7.122;2023-02-20T15:08:42;9.90;99.90
2639;DHT22;1329;51.384;7.122;2023-02-20T15:11:12;9.90;99.90
2639;DHT22;1329;51.384;7.122;2023-02-20T15:13:47;10.00;99.90
2639;DHT22;1329;51.384;7.122;2023-02-20T15:16:20;9.90;99.90
2639;DHT22;1329;51.384;7.122;2023-02-20T15:18:53;10.00;99.90
2639;DHT22;1329;51.384;7.122;2023-02-20T15:21:34;9.90;99.90
2639;DHT22;1329;51.384;7.122;2023-02-20T15:24:36;10.00;99.90
2639;DHT22;1329;51.384;7.122;2023-02-20T15:27:11;10.00;99.90
2639;DHT22;1329;51.384;7.122;2023-02-20T15:29:40;9.90;99.90
2639;DHT22;1329;51.384;7.122;2023-02-20T15:32:20;10.00;99.90
2639;DHT22;1329;51.384;7.122;2023-02-20T15:34:53;10.00;99.90
2639;DHT22;1329;51.384;7.122;2023-02-20T15:37:25;9.90;99.90
2639;DHT22;1329;51.384;7.122;2023-02-20T15:40:23;10.00;99.90
2639;DHT22;1329;51.384;7.122;2023-02-20T15:42:52;10.00;99.90
2639;DHT22;1329;51.384;7.122;2023-02-20T15:45:26;10.00;99.90
2639;DHT22;1329;51.384;7.122;2023-02-20T15:47:57;10.00;99.90
2639;DHT22;1329;51.384;7.122;2023-02-20T15:50:25;10.00;99.90
2639;DHT22;1329;51.384;7.122;2023-02-20T15:52:56;10.00;99.90
2639;DHT22;1329;51.384;7.122;2023-02-20T15:55:30;10.00;99.90
2639;DHT22;1329;51.384;7.122;2023-02-20T15:58:00;10.00;99.90
2639;DHT22;1329;51.384;7.122;2023-02-20T16:00:32;10.00;99.90
2639;DHT22;1329;51.384;7.122;2023-02-20T16:03:07;10.00;99.90
2639;DHT22;1329;51.384;7.122;2023-02-20T16:05:35;10.00;99.90
2639;DHT22;1329;51.384;7.122;2023-02-20T16:08:24;10.00;99.90
2639;DHT22;1329;51.384;7.122;2023-02-20T16:10:53;10.00;99.90
2639;DHT22;1329;51.384;7.122;2023-02-20T16:13:25;10.00;99.90
2639;DHT22;1329;51.384;7.122;2023-02-20T16:15:56;10.00;99.90
2639;DHT22;1329;51.384;7.122;2023-02-20T16:18:28;10.00;99.90
2639;DHT22;1329;51.384;7.122;2023-02-20T16:20:58;10.00;99.90
2639;DHT22;1329;51.384;7.122;2023-02-20T16:23:26;10.00;99.90
2639;DHT22;1329;51.384;7.122;2023-02-20T16:25:55;10.00;99.90
2639;DHT22;1329;51.384;7.122;2023-02-20T16:28:23;10.00;99.90
2639;DHT22;1329;51.384;7.122;2023-02-20T16:30:54;10.00;99.90
2639;DHT22;1329;51.384;7.122;2023-02-20T16:33:22;10.00;99.90
2639;DHT22;1329;51.384;7.122;2023-02-20T16:35:53;10.00;99.90
2639;DHT22;1329;51.384;7.122;2023-02-20T16:45:13;10.00;99.90
2639;DHT22;1329;51.384;7.122;2023-02-20T16:47:53;10.10;99.90
2639;DHT22;1329;51.384;7.122;2023-02-20T16:50:26;10.00;99.90
2639;DHT22;1329;51.384;7.122;2023-02-20T16:53:06;10.10;99.90
2639;DHT22;1329;51.384;7.122;2023-02-20T16:55:41;10.10;99.90
2639;DHT22;1329;51.384;7.122;2023-02-20T16:58:14;10.00;99.90
2639;DHT22;1329;51.384;7.122;2023-02-20T17:00:47;10.10;99.90
2639;DHT22;1329;51.384;7.122;2023-02-20T17:03:17;10.00;99.90
2639;DHT22;1329;51.384;7.122;2023-02-20T17:05:45;10.00;99.90
2639;DHT22;1329;51.384;7.122;2023-02-20T17:08:16;10.10;99.90
2639;DHT22;1329;51.384;7.122;2023-02-20T17:10:44;10.10;99.90
2639;DHT22;1329;51.384;7.122;2023-02-20T17:13:13;10.10;99.90
2639;DHT22;1329;51.384;7.122;2023-02-20T17:15:41;9.90;99.90
2639;DHT22;1329;51.384;7.122;2023-02-20T17:18:12;10.10;99.90
2639;DHT22;1329;51.384;7.122;2023-02-20T17:20:42;10.10;99.90
2639;DHT22;1329;51.384;7.122;2023-02-20T17:23:09;10.10;99.90
2639;DHT22;1329;51.384;7.122;2023-02-20T17:25:40;10.10;99.90
2639;DHT22;1329;51.384;7.122;2023-02-20T17:28:07;10.10;99.90
2639;DHT22;1329;51.384;7.122;2023-02-20T17:30:34;10.10;99.90
2639;DHT22;1329;51.384;7.122;2023-02-20T17:33:03;10.10;99.90
2639;DHT22;1329;51.384;7.122;2023-02-20T17:35:33;10.10;99.90
2639;DHT22;1329;51.384;7.122;2023-02-20T17:38:04;10.10;99.90